createdAt,value
2019-03-20T00:04:09.009Z,99828.91
2019-03-20T00:09:14.646Z,99834.30
2019-03-20T00:14:19.799Z,99832.63
2019-03-20T00:19:25.024Z,99834.55
2019-03-20T00:24:30.183Z,99830.53
2019-03-20T00:29:35.738Z,99828.28
2019-03-20T00:34:40.880Z,99824.47
2019-03-20T00:39:46.101Z,99820.94
2019-03-20T00:44:51.244Z,99819.86
2019-03-20T00:49:58.075Z,99820.34
2019-03-20T00:55:04.115Z,99821.50
2019-03-20T01:00:14.863Z,99822.23
2019-03-20T01:05:21.040Z,99827.67
2019-03-20T01:10:26.198Z,99825.89
2019-03-20T01:15:31.764Z,99822.91
2019-03-20T01:20:37.216Z,99819.13
2019-03-20T01:25:42.696Z,99818.50
2019-03-20T01:30:47.832Z,99817.19
2019-03-20T01:35:52.975Z,99821.34
2019-03-20T01:40:58.124Z,99821.43
2019-03-20T01:46:05.292Z,99825.80
2019-03-20T01:51:20.961Z,99822.66
2019-03-20T01:56:26.108Z,99818.37
2019-03-20T02:01:31.624Z,99829.50
2019-03-20T02:06:37.311Z,99829.95
2019-03-20T02:11:42.470Z,99828.84
2019-03-20T02:16:47.878Z,99829.42
2019-03-20T02:21:53.039Z,99832.97
2019-03-20T02:26:58.648Z,99835.64
2019-03-20T02:32:04.987Z,99842.73
2019-03-20T02:37:10.733Z,99841.67
2019-03-20T02:42:15.877Z,99844.77
2019-03-20T02:47:21.417Z,99848.94
2019-03-20T02:52:26.482Z,99854.84
2019-03-20T02:57:31.650Z,99859.17
2019-03-20T03:02:36.619Z,99860.76
2019-03-20T03:07:41.813Z,99859.45
2019-03-20T03:12:47.347Z,99864.94
2019-03-20T03:17:52.853Z,99852.49
2019-03-20T03:22:58.131Z,99858.01
2019-03-20T03:28:03.305Z,99867.66
2019-03-20T03:33:08.476Z,99873.63
2019-03-20T03:38:13.655Z,99873.12
2019-03-20T03:43:18.806Z,99868.11
2019-03-20T03:48:24.316Z,99870.09
2019-03-20T03:53:29.519Z,99875.09
2019-03-20T03:58:34.660Z,99880.64
2019-03-20T04:03:40.230Z,99879.18
2019-03-20T04:08:45.311Z,99894.06
2019-03-20T04:13:51.434Z,99900.89
2019-03-20T04:18:56.963Z,99895.55
2019-03-20T04:24:02.104Z,99900.64
2019-03-20T04:29:07.613Z,99898.27
2019-03-20T04:34:12.788Z,99893.30
2019-03-20T04:39:18.313Z,99896.47
2019-03-20T04:44:23.964Z,99906.41
2019-03-20T04:49:29.061Z,99904.05
2019-03-20T04:54:34.522Z,99908.45
2019-03-20T04:59:39.739Z,99908.36
2019-03-20T05:04:44.825Z,99904.67
2019-03-20T05:09:50.557Z,99913.14
2019-03-20T05:14:56.089Z,99909.15
2019-03-20T05:20:01.261Z,99917.52
2019-03-20T05:25:06.885Z,99923.55
2019-03-20T05:30:13.318Z,99927.00
2019-03-20T05:35:18.536Z,99939.99
2019-03-20T05:40:24.720Z,99932.37
2019-03-20T05:45:30.218Z,99932.37
2019-03-20T05:50:35.796Z,99938.14
2019-03-20T05:55:41.876Z,99944.73
2019-03-20T06:00:47.048Z,99962.44
2019-03-20T06:05:52.602Z,99964.08
2019-03-20T06:10:58.030Z,99973.25
2019-03-20T06:16:03.551Z,99974.78
2019-03-20T06:21:08.716Z,99975.61
2019-03-20T06:26:13.948Z,99982.91
2019-03-20T06:31:19.464Z,99983.06
2019-03-20T06:36:24.633Z,99988.95
2019-03-20T06:41:29.863Z,99987.17
2019-03-20T06:46:35.019Z,99995.98
2019-03-20T06:51:40.205Z,100004.90
2019-03-20T06:56:45.715Z,100005.48
2019-03-20T07:01:50.831Z,100008.10
2019-03-20T07:07:15.262Z,100014.55
2019-03-20T07:12:19.720Z,100014.13
2019-03-20T07:17:24.886Z,100016.84
2019-03-20T07:22:30.059Z,100019.56
2019-03-20T07:27:35.265Z,100020.73
2019-03-20T07:32:40.477Z,100028.38
2019-03-20T07:37:55.612Z,100022.44
2019-03-20T07:42:52.550Z,100021.24
2019-03-20T07:47:57.652Z,100027.59
2019-03-20T07:53:03.078Z,100032.03
2019-03-20T07:58:08.240Z,100039.22
2019-03-20T08:03:13.704Z,100037.24
2019-03-20T08:08:18.868Z,100034.89
2019-03-20T08:13:24.042Z,100036.43
2019-03-20T08:18:29.198Z,100035.59
2019-03-20T08:23:34.380Z,100044.11
2019-03-20T08:28:39.934Z,100046.54
2019-03-20T08:33:45.022Z,100055.19
2019-03-20T08:38:50.528Z,100048.81
2019-03-20T08:43:55.691Z,100046.62
2019-03-20T08:49:01.520Z,100052.95
2019-03-20T08:54:07.329Z,100062.73
2019-03-20T08:59:12.439Z,100054.42
2019-03-20T09:04:17.607Z,100057.70
2019-03-20T09:09:24.580Z,100062.06
2019-03-20T09:14:30.153Z,100074.77
2019-03-20T09:19:35.811Z,100061.98
2019-03-20T09:24:41.008Z,100063.75
2019-03-20T09:29:46.330Z,100058.91
2019-03-20T09:34:51.514Z,100056.71
2019-03-20T09:39:56.704Z,100057.48
2019-03-20T09:45:01.801Z,100058.08
2019-03-20T09:50:08.562Z,100057.08
2019-03-20T09:55:14.276Z,100059.80
2019-03-20T10:00:21.165Z,100066.75
2019-03-20T10:05:26.328Z,100064.84
2019-03-20T10:10:31.752Z,100066.63
2019-03-20T10:15:36.910Z,100061.55
2019-03-20T10:20:42.071Z,100069.58
2019-03-20T10:25:47.587Z,100063.89
2019-03-20T10:30:54.104Z,100061.37
2019-03-20T10:35:59.843Z,100064.21
2019-03-20T10:41:05.464Z,100054.53
2019-03-20T10:46:10.700Z,100057.84
2019-03-20T10:51:17.766Z,100053.30
2019-03-20T10:56:23.361Z,100049.12
2019-03-20T11:01:28.926Z,100053.25
2019-03-20T11:06:34.996Z,100054.91
2019-03-20T11:11:40.541Z,100046.98
2019-03-20T11:16:45.964Z,100043.19
2019-03-20T11:21:51.140Z,100038.54
2019-03-20T11:26:56.265Z,100040.52
2019-03-20T11:32:02.784Z,100037.17
2019-03-20T11:37:07.944Z,100035.61
2019-03-20T11:42:13.110Z,100019.42
2019-03-20T11:47:18.485Z,100012.54
2019-03-20T11:52:23.729Z,100014.38
2019-03-20T11:57:29.263Z,100009.23
2019-03-20T12:02:34.532Z,100015.36
2019-03-20T12:07:39.787Z,99995.32
2019-03-20T12:12:44.968Z,100002.39
2019-03-20T12:17:50.153Z,99992.98
2019-03-20T12:22:55.872Z,99990.84
2019-03-20T12:28:01.159Z,99985.38
2019-03-20T12:33:06.821Z,99985.78
2019-03-20T12:38:14.802Z,99985.89
2019-03-20T12:43:19.052Z,99974.41
2019-03-20T12:48:24.309Z,99966.86
2019-03-20T12:53:31.523Z,99961.00
2019-03-20T12:58:36.689Z,99953.05
2019-03-20T13:03:42.352Z,99945.17
2019-03-20T13:08:47.599Z,99948.33
2019-03-20T13:13:53.163Z,99942.97
2019-03-20T13:18:58.414Z,99940.48
2019-03-20T13:24:03.666Z,99948.26
2019-03-20T13:29:09.297Z,99946.76
2019-03-20T13:34:14.541Z,99941.14
2019-03-20T13:39:20.767Z,99939.89
2019-03-20T13:44:26.310Z,99938.33
2019-03-20T13:49:31.492Z,99949.87
2019-03-20T13:54:36.792Z,99945.16
2019-03-20T13:59:42.067Z,99948.20
2019-03-20T14:04:47.635Z,99946.50
2019-03-20T14:09:53.170Z,99953.02
2019-03-20T14:14:58.810Z,99961.08
2019-03-20T14:20:04.686Z,99946.15
2019-03-20T14:25:10.269Z,99959.69
2019-03-20T14:30:23.487Z,99959.91
2019-03-20T14:35:28.723Z,99959.52
2019-03-20T14:40:37.092Z,99950.77
2019-03-20T14:45:41.943Z,99957.61
2019-03-20T14:50:47.181Z,99949.69
2019-03-20T14:55:52.821Z,99937.61
2019-03-20T15:00:58.068Z,99930.63
2019-03-20T15:06:03.328Z,99927.58
2019-03-20T15:11:08.575Z,99921.89
2019-03-20T15:16:14.289Z,99929.10
2019-03-20T15:21:19.848Z,99928.05
2019-03-20T15:26:25.115Z,99928.06
2019-03-20T15:31:30.545Z,99931.59
2019-03-20T15:36:37.238Z,99926.16
2019-03-20T15:41:42.516Z,99922.76
2019-03-20T15:46:47.905Z,99924.53
2019-03-20T15:51:53.329Z,99914.47
2019-03-20T15:56:58.596Z,99922.36
2019-03-20T16:02:04.539Z,99926.50
2019-03-20T16:07:09.812Z,99923.55
2019-03-20T16:12:15.263Z,99921.81
2019-03-20T16:17:20.610Z,99929.16
2019-03-20T16:22:26.991Z,99917.34
2019-03-20T16:27:32.476Z,99924.52
2019-03-20T16:32:38.650Z,99930.45
2019-03-20T16:37:46.769Z,99923.53
2019-03-20T16:42:52.118Z,99927.45
2019-03-20T16:47:57.682Z,99931.87
2019-03-20T16:53:03.343Z,99932.46
2019-03-20T16:58:08.964Z,99938.64
2019-03-20T17:03:14.235Z,99941.37
2019-03-20T17:08:19.419Z,99951.50
2019-03-20T17:13:25.087Z,99943.03
2019-03-20T17:18:30.433Z,99949.77
2019-03-20T17:23:35.698Z,99948.36
2019-03-20T17:28:40.965Z,99948.59
2019-03-20T17:33:47.389Z,99956.45
2019-03-20T17:38:53.038Z,99946.52
2019-03-20T17:43:58.298Z,99953.63
2019-03-20T17:49:03.567Z,99949.36
2019-03-20T17:54:08.841Z,99954.31
2019-03-20T17:59:17.145Z,99967.89
2019-03-20T18:04:22.329Z,99967.41
2019-03-20T18:09:27.625Z,99972.81
2019-03-20T18:14:33.374Z,99978.03
2019-03-20T18:19:39.000Z,99985.28
2019-03-20T18:24:44.259Z,99989.31
2019-03-20T18:29:49.822Z,99985.14
2019-03-20T18:34:55.002Z,99992.69
2019-03-20T18:40:00.888Z,99994.25
2019-03-20T18:45:06.977Z,100005.22
2019-03-20T18:50:12.720Z,99996.61
2019-03-20T18:55:18.670Z,100002.65
2019-03-20T19:00:26.152Z,100015.00
2019-03-20T19:05:40.365Z,100020.72
2019-03-20T19:10:46.024Z,100016.28
2019-03-20T19:15:53.793Z,100016.04
2019-03-20T19:20:59.287Z,100017.34
2019-03-20T19:26:04.912Z,100028.36
2019-03-20T19:31:10.125Z,100028.53
2019-03-20T19:36:15.707Z,100030.56
2019-03-20T19:41:20.969Z,100027.72
2019-03-20T19:46:26.151Z,100029.45
2019-03-20T19:51:31.373Z,100039.73
2019-03-20T19:56:36.631Z,100038.11
2019-03-20T20:01:41.881Z,100037.59
2019-03-20T20:06:47.064Z,100040.11
2019-03-20T20:11:52.911Z,100038.91
2019-03-20T20:16:58.092Z,100046.42
2019-03-20T20:22:03.342Z,100044.30
2019-03-20T20:27:08.524Z,100052.14
2019-03-20T20:32:14.109Z,100043.86
2019-03-20T20:37:20.264Z,100048.42
2019-03-20T20:42:25.461Z,100050.64
2019-03-20T20:47:30.647Z,100055.21
2019-03-20T20:52:35.857Z,100057.84
2019-03-20T20:57:41.055Z,100064.03
2019-03-20T21:02:46.279Z,100061.81
2019-03-20T21:07:51.918Z,100069.72
2019-03-20T21:12:57.706Z,100066.95
2019-03-20T21:18:57.113Z,100058.69
2019-03-20T21:24:23.710Z,100049.53
2019-03-20T21:29:54.987Z,100062.20
2019-03-20T21:35:56.547Z,100059.65
2019-03-20T21:41:53.587Z,100066.00
2019-03-20T21:47:35.489Z,100063.31
2019-03-20T21:52:41.936Z,100066.77
2019-03-20T21:58:17.662Z,100068.55
2019-03-20T22:03:23.355Z,100063.36
2019-03-20T22:08:29.175Z,100065.06
2019-03-20T22:13:51.514Z,100068.59
2019-03-20T22:19:14.880Z,100073.25
2019-03-20T22:24:32.279Z,100077.11
2019-03-20T22:29:38.409Z,100083.02
2019-03-20T22:35:21.195Z,100087.02
2019-03-20T22:41:09.191Z,100090.91
2019-03-20T22:46:50.104Z,100098.80
2019-03-20T22:52:41.452Z,100097.45
2019-03-20T22:58:09.490Z,100100.95
2019-03-20T23:03:20.664Z,100103.45
2019-03-20T23:08:27.334Z,100114.27
2019-03-20T23:13:41.436Z,100113.94
2019-03-20T23:18:41.100Z,100115.49
2019-03-20T23:23:47.144Z,100119.09
2019-03-20T23:28:53.497Z,100120.08
2019-03-20T23:33:59.197Z,100118.06
2019-03-20T23:39:06.900Z,100124.09
2019-03-20T23:44:12.734Z,100122.78
2019-03-20T23:49:20.967Z,100128.53
2019-03-20T23:54:30.959Z,100132.70
2019-03-20T23:59:36.763Z,100135.80
